sensor_id;sensor_type;location;lat;lon;timestamp;P1;durP1;ratioP1;P2;durP2;ratioP2
55800;SDS011;41730;51.960;20.158;2022-08-01T00:00:11;3.80;;;2.70;;
55800;SDS011;41730;51.960;20.158;2022-08-01T00:02:41;3.70;;;2.60;;
55800;SDS011;41730;51.960;20.158;2022-08-01T00:05:10;6.40;;;2.90;;
55800;SDS011;41730;51.960;20.158;2022-08-01T00:07:40;3.90;;;2.60;;
55800;SDS011;41730;51.960;20.158;2022-08-01T00:10:10;7.30;;;3.00;;
55800;SDS011;41730;51.960;20.158;2022-08-01T00:12:41;4.20;;;2.60;;
55800;SDS011;41730;51.960;20.158;2022-08-01T00:15:12;4.80;;;2.50;;
55800;SDS011;41730;51.960;20.158;2022-08-01T00:17:44;5.40;;;2.70;;
55800;SDS011;41730;51.960;20.158;2022-08-01T00:20:13;5.40;;;2.70;;
55800;SDS011;41730;51.960;20.158;2022-08-01T00:22:43;6.20;;;2.60;;
55800;SDS011;41730;51.960;20.158;2022-08-01T00:25:12;3.60;;;2.50;;
55800;SDS011;41730;51.960;20.158;2022-08-01T00:27:42;3.40;;;2.20;;
55800;SDS011;41730;51.960;20.158;2022-08-01T00:30:13;3.20;;;2.50;;
55800;SDS011;41730;51.960;20.158;2022-08-01T00:32:43;4.90;;;2.90;;
55800;SDS011;41730;51.960;20.158;2022-08-01T00:35:12;5.50;;;2.40;;
55800;SDS011;41730;51.960;20.158;2022-08-01T00:37:41;4.60;;;2.80;;
55800;SDS011;41730;51.960;20.158;2022-08-01T00:40:11;3.10;;;2.30;;
55800;SDS011;41730;51.960;20.158;2022-08-01T00:42:41;3.70;;;2.80;;
55800;SDS011;41730;51.960;20.158;2022-08-01T00:45:10;4.10;;;2.40;;
55800;SDS011;41730;51.960;20.158;2022-08-01T00:47:40;4.00;;;2.60;;
55800;SDS011;41730;51.960;20.158;2022-08-01T00:50:10;3.40;;;2.50;;
55800;SDS011;41730;51.960;20.158;2022-08-01T00:52:40;5.50;;;2.90;;
55800;SDS011;41730;51.960;20.158;2022-08-01T00:55:18;5.20;;;2.60;;
55800;SDS011;41730;51.960;20.158;2022-08-01T00:57:48;3.50;;;2.60;;
55800;SDS011;41730;51.960;20.158;2022-08-01T01:00:32;4.00;;;3.00;;
55800;SDS011;41730;51.960;20.158;2022-08-01T01:03:21;6.90;;;2.60;;
55800;SDS011;41730;51.960;20.158;2022-08-01T01:06:14;4.80;;;3.00;;
55800;SDS011;41730;51.960;20.158;2022-08-01T01:08:58;5.00;;;2.90;;
55800;SDS011;41730;51.960;20.158;2022-08-01T01:11:39;6.00;;;3.10;;
55800;SDS011;41730;51.960;20.158;2022-08-01T01:14:18;4.20;;;2.70;;
55800;SDS011;41730;51.960;20.158;2022-08-01T01:16:55;5.50;;;3.30;;
55800;SDS011;41730;51.960;20.158;2022-08-01T01:19:28;4.30;;;2.70;;
55800;SDS011;41730;51.960;20.158;2022-08-01T01:22:05;6.00;;;2.80;;
55800;SDS011;41730;51.960;20.158;2022-08-01T01:24:50;4.80;;;3.10;;
55800;SDS011;41730;51.960;20.158;2022-08-01T01:27:45;5.00;;;2.70;;
55800;SDS011;41730;51.960;20.158;2022-08-01T01:30:19;4.50;;;3.20;;
55800;SDS011;41730;51.960;20.158;2022-08-01T01:32:52;3.50;;;2.80;;
55800;SDS011;41730;51.960;20.158;2022-08-01T01:35:25;6.60;;;3.00;;
55800;SDS011;41730;51.960;20.158;2022-08-01T01:38:00;3.80;;;2.80;;
55800;SDS011;41730;51.960;20.158;2022-08-01T01:40:32;3.80;;;3.10;;
55800;SDS011;41730;51.960;20.158;2022-08-01T01:43:04;7.40;;;3.10;;
55800;SDS011;41730;51.960;20.158;2022-08-01T01:45:36;4.10;;;2.70;;
55800;SDS011;41730;51.960;20.158;2022-08-01T01:48:06;4.50;;;2.60;;
55800;SDS011;41730;51.960;20.158;2022-08-01T01:50:37;4.20;;;2.70;;
55800;SDS011;41730;51.960;20.158;2022-08-01T01:53:09;5.10;;;3.00;;
55800;SDS011;41730;51.960;20.158;2022-08-01T01:55:43;3.00;;;2.40;;
55800;SDS011;41730;51.960;20.158;2022-08-01T02:00:45;4.30;;;2.80;;
55800;SDS011;41730;51.960;20.158;2022-08-01T02:03:17;3.50;;;2.10;;
55800;SDS011;41730;51.960;20.158;2022-08-01T02:05:48;5.50;;;2.90;;
55800;SDS011;41730;51.960;20.158;2022-08-01T02:08:19;4.90;;;2.80;;
55800;SDS011;41730;51.960;20.158;2022-08-01T02:10:51;6.70;;;2.60;;
55800;SDS011;41730;51.960;20.158;2022-08-01T02:13:39;4.50;;;2.30;;
55800;SDS011;41730;51.960;20.158;2022-08-01T02:16:10;4.00;;;2.20;;
55800;SDS011;41730;51.960;20.158;2022-08-01T02:18:41;3.30;;;2.20;;
55800;SDS011;41730;51.960;20.158;2022-08-01T02:21:12;5.00;;;2.60;;
55800;SDS011;41730;51.960;20.158;2022-08-01T02:23:47;5.30;;;2.40;;
55800;SDS011;41730;51.960;20.158;2022-08-01T02:26:17;4.10;;;2.30;;
55800;SDS011;41730;51.960;20.158;2022-08-01T02:28:49;4.60;;;2.50;;
55800;SDS011;41730;51.960;20.158;2022-08-01T02:31:21;4.20;;;2.40;;
55800;SDS011;41730;51.960;20.158;2022-08-01T02:33:54;3.00;;;2.40;;
55800;SDS011;41730;51.960;20.158;2022-08-01T02:36:26;2.80;;;2.30;;
55800;SDS011;41730;51.960;20.158;2022-08-01T02:39:00;5.60;;;2.70;;
55800;SDS011;41730;51.960;20.158;2022-08-01T02:41:32;5.20;;;2.70;;
55800;SDS011;41730;51.960;20.158;2022-08-01T02:44:06;5.70;;;2.70;;
55800;SDS011;41730;51.960;20.158;2022-08-01T02:46:38;5.50;;;2.90;;
55800;SDS011;41730;51.960;20.158;2022-08-01T02:49:11;3.60;;;2.50;;
55800;SDS011;41730;51.960;20.158;2022-08-01T02:51:42;4.80;;;2.40;;
55800;SDS011;41730;51.960;20.158;2022-08-01T02:54:14;5.40;;;2.60;;
55800;SDS011;41730;51.960;20.158;2022-08-01T02:56:46;6.70;;;2.60;;
55800;SDS011;41730;51.960;20.158;2022-08-01T02:59:18;4.00;;;2.70;;
55800;SDS011;41730;51.960;20.158;2022-08-01T03:01:52;4.80;;;2.70;;
55800;SDS011;41730;51.960;20.158;2022-08-01T03:04:23;3.70;;;2.60;;
55800;SDS011;41730;51.960;20.158;2022-08-01T03:06:54;5.30;;;2.90;;
55800;SDS011;41730;51.960;20.158;2022-08-01T03:09:25;5.20;;;3.00;;
55800;SDS011;41730;51.960;20.158;2022-08-01T03:11:59;5.10;;;2.50;;
55800;SDS011;41730;51.960;20.158;2022-08-01T03:14:31;5.70;;;2.90;;
55800;SDS011;41730;51.960;20.158;2022-08-01T03:17:03;4.00;;;3.10;;
55800;SDS011;41730;51.960;20.158;2022-08-01T03:19:33;5.70;;;2.90;;
55800;SDS011;41730;51.960;20.158;2022-08-01T03:22:05;5.30;;;3.10;;
55800;SDS011;41730;51.960;20.158;2022-08-01T03:24:36;3.80;;;3.10;;
55800;SDS011;41730;51.960;20.158;2022-08-01T03:27:07;3.70;;;2.90;;
55800;SDS011;41730;51.960;20.158;2022-08-01T03:29:39;5.10;;;3.10;;
55800;SDS011;41730;51.960;20.158;2022-08-01T03:32:16;5.10;;;3.30;;
55800;SDS011;41730;51.960;20.158;2022-08-01T03:35:06;4.20;;;3.20;;
55800;SDS011;41730;51.960;20.158;2022-08-01T03:37:55;4.40;;;2.60;;
55800;SDS011;41730;51.960;20.158;2022-08-01T03:40:47;5.90;;;3.10;;
55800;SDS011;41730;51.960;20.158;2022-08-01T03:43:37;5.40;;;3.10;;
55800;SDS011;41730;51.960;20.158;2022-08-01T03:46:35;3.70;;;3.20;;
55800;SDS011;41730;51.960;20.158;2022-08-01T03:49:28;6.40;;;3.50;;
55800;SDS011;41730;51.960;20.158;2022-08-01T03:52:21;4.40;;;3.10;;
55800;SDS011;41730;51.960;20.158;2022-08-01T03:55:11;6.30;;;3.50;;
55800;SDS011;41730;51.960;20.158;2022-08-01T03:58:04;6.30;;;3.80;;
55800;SDS011;41730;51.960;20.158;2022-08-01T04:00:55;4.20;;;3.30;;
55800;SDS011;41730;51.960;20.158;2022-08-01T04:03:47;7.50;;;3.70;;
55800;SDS011;41730;51.960;20.158;2022-08-01T04:06:39;3.90;;;3.20;;
55800;SDS011;41730;51.960;20.158;2022-08-01T04:09:31;4.90;;;3.20;;
55800;SDS011;41730;51.960;20.158;2022-08-01T04:12:14;6.90;;;3.60;;
55800;SDS011;41730;51.960;20.158;2022-08-01T04:14:43;7.50;;;3.60;;
55800;SDS011;41730;51.960;20.158;2022-08-01T04:17:13;4.60;;;3.50;;
55800;SDS011;41730;51.960;20.158;2022-08-01T04:19:43;6.10;;;3.70;;
55800;SDS011;41730;51.960;20.158;2022-08-01T04:22:13;5.80;;;3.50;;
55800;SDS011;41730;51.960;20.158;2022-08-01T04:24:44;5.10;;;3.60;;
55800;SDS011;41730;51.960;20.158;2022-08-01T04:27:23;4.10;;;3.30;;
55800;SDS011;41730;51.960;20.158;2022-08-01T04:30:17;6.10;;;3.70;;
55800;SDS011;41730;51.960;20.158;2022-08-01T04:32:48;5.50;;;3.40;;
55800;SDS011;41730;51.960;20.158;2022-08-01T04:35:18;4.50;;;3.00;;
55800;SDS011;41730;51.960;20.158;2022-08-01T04:38:10;6.80;;;3.20;;
55800;SDS011;41730;51.960;20.158;2022-08-01T04:40:43;4.80;;;3.10;;
55800;SDS011;41730;51.960;20.158;2022-08-01T04:43:13;5.90;;;3.00;;
55800;SDS011;41730;51.960;20.158;2022-08-01T04:45:43;4.00;;;3.00;;
55800;SDS011;41730;51.960;20.158;2022-08-01T04:48:14;4.50;;;2.80;;
55800;SDS011;41730;51.960;20.158;2022-08-01T04:50:49;6.00;;;3.20;;
55800;SDS011;41730;51.960;20.158;2022-08-01T04:53:19;4.50;;;2.80;;
55800;SDS011;41730;51.960;20.158;2022-08-01T04:55:49;4.50;;;3.10;;
55800;SDS011;41730;51.960;20.158;2022-08-01T04:58:18;4.40;;;2.60;;
55800;SDS011;41730;51.960;20.158;2022-08-01T05:00:47;4.50;;;2.50;;
55800;SDS011;41730;51.960;20.158;2022-08-01T05:03:17;4.00;;;3.00;;
55800;SDS011;41730;51.960;20.158;2022-08-01T05:05:47;5.00;;;2.80;;
55800;SDS011;41730;51.960;20.158;2022-08-01T05:08:16;6.30;;;3.10;;
55800;SDS011;41730;51.960;20.158;2022-08-01T05:10:45;4.00;;;2.80;;
55800;SDS011;41730;51.960;20.158;2022-08-01T05:13:14;3.90;;;2.70;;
55800;SDS011;41730;51.960;20.158;2022-08-01T05:15:43;5.00;;;2.60;;
55800;SDS011;41730;51.960;20.158;2022-08-01T05:18:13;3.80;;;2.60;;
55800;SDS011;41730;51.960;20.158;2022-08-01T05:20:52;3.40;;;2.70;;
55800;SDS011;41730;51.960;20.158;2022-08-01T05:23:21;3.70;;;2.90;;
55800;SDS011;41730;51.960;20.158;2022-08-01T05:26:09;5.40;;;3.30;;
55800;SDS011;41730;51.960;20.158;2022-08-01T05:28:42;3.80;;;2.90;;
55800;SDS011;41730;51.960;20.158;2022-08-01T05:31:11;5.00;;;3.20;;
55800;SDS011;41730;51.960;20.158;2022-08-01T05:33:40;5.70;;;3.30;;
55800;SDS011;41730;51.960;20.158;2022-08-01T05:36:10;4.40;;;2.80;;
55800;SDS011;41730;51.960;20.158;2022-08-01T05:38:39;5.10;;;2.90;;
55800;SDS011;41730;51.960;20.158;2022-08-01T05:41:08;6.30;;;3.40;;
55800;SDS011;41730;51.960;20.158;2022-08-01T05:43:38;3.90;;;2.70;;
55800;SDS011;41730;51.960;20.158;2022-08-01T05:46:08;4.70;;;3.00;;
55800;SDS011;41730;51.960;20.158;2022-08-01T05:48:37;4.50;;;2.70;;
55800;SDS011;41730;51.960;20.158;2022-08-01T05:51:06;4.80;;;2.70;;
55800;SDS011;41730;51.960;20.158;2022-08-01T05:53:35;4.90;;;2.90;;
55800;SDS011;41730;51.960;20.158;2022-08-01T05:56:05;5.40;;;3.00;;
55800;SDS011;41730;51.960;20.158;2022-08-01T05:58:34;6.20;;;2.80;;
55800;SDS011;41730;51.960;20.158;2022-08-01T06:01:03;5.10;;;3.00;;
55800;SDS011;41730;51.960;20.158;2022-08-01T06:03:33;5.60;;;2.70;;
55800;SDS011;41730;51.960;20.158;2022-08-01T06:06:02;4.70;;;2.80;;
55800;SDS011;41730;51.960;20.158;2022-08-01T06:08:32;3.70;;;2.50;;
55800;SDS011;41730;51.960;20.158;2022-08-01T06:11:02;4.90;;;2.80;;
55800;SDS011;41730;51.960;20.158;2022-08-01T06:13:31;3.80;;;2.40;;
55800;SDS011;41730;51.960;20.158;2022-08-01T06:16:14;3.90;;;2.20;;
55800;SDS011;41730;51.960;20.158;2022-08-01T06:18:44;5.50;;;2.70;;
55800;SDS011;41730;51.960;20.158;2022-08-01T06:21:13;4.40;;;2.50;;
55800;SDS011;41730;51.960;20.158;2022-08-01T06:23:42;3.00;;;2.40;;
55800;SDS011;41730;51.960;20.158;2022-08-01T06:26:12;4.10;;;2.10;;
55800;SDS011;41730;51.960;20.158;2022-08-01T06:28:41;3.10;;;2.30;;
55800;SDS011;41730;51.960;20.158;2022-08-01T06:31:10;3.30;;;2.20;;
55800;SDS011;41730;51.960;20.158;2022-08-01T06:33:40;6.40;;;2.60;;
55800;SDS011;41730;51.960;20.158;2022-08-01T06:36:10;5.70;;;2.40;;
55800;SDS011;41730;51.960;20.158;2022-08-01T06:38:39;3.30;;;2.40;;
55800;SDS011;41730;51.960;20.158;2022-08-01T06:41:09;3.50;;;2.00;;
55800;SDS011;41730;51.960;20.158;2022-08-01T06:43:38;3.20;;;2.20;;
55800;SDS011;41730;51.960;20.158;2022-08-01T06:46:07;3.40;;;2.00;;
55800;SDS011;41730;51.960;20.158;2022-08-01T06:48:36;3.30;;;2.40;;
55800;SDS011;41730;51.960;20.158;2022-08-01T06:51:06;4.00;;;2.20;;
55800;SDS011;41730;51.960;20.158;2022-08-01T06:53:35;2.80;;;1.80;;
55800;SDS011;41730;51.960;20.158;2022-08-01T06:56:06;2.80;;;2.00;;
55800;SDS011;41730;51.960;20.158;2022-08-01T06:58:36;4.60;;;2.10;;
55800;SDS011;41730;51.960;20.158;2022-08-01T07:01:06;2.70;;;1.70;;
55800;SDS011;41730;51.960;20.158;2022-08-01T07:03:35;3.40;;;1.60;;
55800;SDS011;41730;51.960;20.158;2022-08-01T07:06:21;4.60;;;1.60;;
55800;SDS011;41730;51.960;20.158;2022-08-01T07:08:51;3.20;;;1.90;;
55800;SDS011;41730;51.960;20.158;2022-08-01T07:11:22;2.80;;;1.30;;
55800;SDS011;41730;51.960;20.158;2022-08-01T07:13:51;2.10;;;1.40;;
55800;SDS011;41730;51.960;20.158;2022-08-01T07:16:21;2.60;;;1.90;;
55800;SDS011;41730;51.960;20.158;2022-08-01T07:18:50;3.30;;;1.70;;
55800;SDS011;41730;51.960;20.158;2022-08-01T07:21:20;2.80;;;1.80;;
55800;SDS011;41730;51.960;20.158;2022-08-01T07:24:07;3.20;;;1.70;;
55800;SDS011;41730;51.960;20.158;2022-08-01T07:26:42;3.00;;;1.90;;
55800;SDS011;41730;51.960;20.158;2022-08-01T07:29:24;2.70;;;1.60;;
55800;SDS011;41730;51.960;20.158;2022-08-01T07:31:57;3.10;;;2.00;;
55800;SDS011;41730;51.960;20.158;2022-08-01T07:34:27;6.50;;;2.30;;
55800;SDS011;41730;51.960;20.158;2022-08-01T07:36:56;3.10;;;2.20;;
55800;SDS011;41730;51.960;20.158;2022-08-01T07:39:26;3.50;;;1.90;;
55800;SDS011;41730;51.960;20.158;2022-08-01T07:41:55;4.20;;;2.20;;
55800;SDS011;41730;51.960;20.158;2022-08-01T07:44:34;4.40;;;2.50;;
55800;SDS011;41730;51.960;20.158;2022-08-01T07:47:04;4.10;;;2.00;;
55800;SDS011;41730;51.960;20.158;2022-08-01T07:49:34;3.60;;;2.00;;
55800;SDS011;41730;51.960;20.158;2022-08-01T07:52:07;4.80;;;2.10;;
55800;SDS011;41730;51.960;20.158;2022-08-01T07:54:36;5.50;;;2.10;;
55800;SDS011;41730;51.960;20.158;2022-08-01T07:57:05;3.80;;;2.30;;
55800;SDS011;41730;51.960;20.158;2022-08-01T07:59:35;3.70;;;2.40;;
55800;SDS011;41730;51.960;20.158;2022-08-01T08:02:04;3.90;;;2.20;;
55800;SDS011;41730;51.960;20.158;2022-08-01T08:04:34;4.60;;;2.20;;
55800;SDS011;41730;51.960;20.158;2022-08-01T08:07:04;4.60;;;2.10;;
55800;SDS011;41730;51.960;20.158;2022-08-01T08:09:36;3.50;;;1.90;;
55800;SDS011;41730;51.960;20.158;2022-08-01T08:12:06;4.60;;;1.80;;
55800;SDS011;41730;51.960;20.158;2022-08-01T08:14:36;5.00;;;2.10;;
55800;SDS011;41730;51.960;20.158;2022-08-01T08:17:05;3.20;;;1.90;;
55800;SDS011;41730;51.960;20.158;2022-08-01T08:19:35;3.40;;;1.90;;
55800;SDS011;41730;51.960;20.158;2022-08-01T08:22:06;4.50;;;2.30;;
55800;SDS011;41730;51.960;20.158;2022-08-01T08:24:37;3.00;;;2.10;;
55800;SDS011;41730;51.960;20.158;2022-08-01T08:27:13;3.70;;;2.20;;
55800;SDS011;41730;51.960;20.158;2022-08-01T08:29:42;4.00;;;1.90;;
55800;SDS011;41730;51.960;20.158;2022-08-01T08:32:13;3.60;;;1.80;;
55800;SDS011;41730;51.960;20.158;2022-08-01T08:34:42;3.00;;;1.70;;
55800;SDS011;41730;51.960;20.158;2022-08-01T08:37:13;3.80;;;1.80;;
55800;SDS011;41730;51.960;20.158;2022-08-01T08:39:47;4.30;;;1.60;;
55800;SDS011;41730;51.960;20.158;2022-08-01T08:42:16;2.50;;;1.60;;
55800;SDS011;41730;51.960;20.158;2022-08-01T08:44:47;4.90;;;1.70;;
55800;SDS011;41730;51.960;20.158;2022-08-01T08:47:17;3.30;;;1.90;;
55800;SDS011;41730;51.960;20.158;2022-08-01T08:49:47;3.50;;;1.60;;
55800;SDS011;41730;51.960;20.158;2022-08-01T08:54:50;2.40;;;1.40;;
55800;SDS011;41730;51.960;20.158;2022-08-01T08:57:21;3.20;;;1.90;;
55800;SDS011;41730;51.960;20.158;2022-08-01T08:59:50;2.40;;;1.60;;
55800;SDS011;41730;51.960;20.158;2022-08-01T09:02:21;3.40;;;1.60;;
55800;SDS011;41730;51.960;20.158;2022-08-01T09:04:50;2.50;;;1.20;;
55800;SDS011;41730;51.960;20.158;2022-08-01T09:07:21;2.70;;;1.50;;
55800;SDS011;41730;51.960;20.158;2022-08-01T09:09:52;2.50;;;1.60;;
55800;SDS011;41730;51.960;20.158;2022-08-01T09:12:22;7.60;;;1.60;;
55800;SDS011;41730;51.960;20.158;2022-08-01T09:14:52;4.30;;;1.50;;
55800;SDS011;41730;51.960;20.158;2022-08-01T09:17:21;2.70;;;1.60;;
55800;SDS011;41730;51.960;20.158;2022-08-01T09:19:52;2.50;;;1.30;;
55800;SDS011;41730;51.960;20.158;2022-08-01T09:22:25;5.60;;;1.70;;
55800;SDS011;41730;51.960;20.158;2022-08-01T09:25:06;2.40;;;1.40;;
55800;SDS011;41730;51.960;20.158;2022-08-01T09:27:38;2.90;;;1.60;;
55800;SDS011;41730;51.960;20.158;2022-08-01T09:30:13;2.60;;;1.50;;
55800;SDS011;41730;51.960;20.158;2022-08-01T09:32:56;4.90;;;1.50;;
55800;SDS011;41730;51.960;20.158;2022-08-01T09:35:44;3.20;;;1.60;;
55800;SDS011;41730;51.960;20.158;2022-08-01T09:38:23;3.90;;;1.90;;
55800;SDS011;41730;51.960;20.158;2022-08-01T09:40:55;3.10;;;1.40;;
55800;SDS011;41730;51.960;20.158;2022-08-01T09:43:26;3.60;;;1.70;;
55800;SDS011;41730;51.960;20.158;2022-08-01T09:45:58;3.80;;;1.80;;
55800;SDS011;41730;51.960;20.158;2022-08-01T09:48:32;1.70;;;1.30;;
55800;SDS011;41730;51.960;20.158;2022-08-01T09:51:02;3.00;;;1.80;;
55800;SDS011;41730;51.960;20.158;2022-08-01T09:53:42;3.00;;;1.80;;
55800;SDS011;41730;51.960;20.158;2022-08-01T09:56:19;3.30;;;1.70;;
55800;SDS011;41730;51.960;20.158;2022-08-01T09:58:51;2.90;;;1.30;;
55800;SDS011;41730;51.960;20.158;2022-08-01T10:01:27;3.40;;;1.90;;
55800;SDS011;41730;51.960;20.158;2022-08-01T10:04:09;2.50;;;1.50;;
55800;SDS011;41730;51.960;20.158;2022-08-01T10:06:42;2.70;;;1.20;;
55800;SDS011;41730;51.960;20.158;2022-08-01T10:09:13;3.90;;;1.70;;
55800;SDS011;41730;51.960;20.158;2022-08-01T10:11:43;2.10;;;1.50;;
55800;SDS011;41730;51.960;20.158;2022-08-01T10:14:12;2.50;;;1.50;;
55800;SDS011;41730;51.960;20.158;2022-08-01T10:16:44;2.50;;;1.50;;
55800;SDS011;41730;51.960;20.158;2022-08-01T10:19:21;3.20;;;1.30;;
55800;SDS011;41730;51.960;20.158;2022-08-01T10:21:55;2.50;;;1.40;;
55800;SDS011;41730;51.960;20.158;2022-08-01T10:24:28;3.50;;;1.30;;
55800;SDS011;41730;51.960;20.158;2022-08-01T10:27:02;2.90;;;1.30;;
55800;SDS011;41730;51.960;20.158;2022-08-01T10:29:36;4.70;;;1.40;;
55800;SDS011;41730;51.960;20.158;2022-08-01T10:32:13;3.00;;;1.40;;
55800;SDS011;41730;51.960;20.158;2022-08-01T10:34:44;2.30;;;1.40;;
55800;SDS011;41730;51.960;20.158;2022-08-01T10:37:15;2.10;;;1.20;;
55800;SDS011;41730;51.960;20.158;2022-08-01T10:39:45;2.80;;;1.40;;
55800;SDS011;41730;51.960;20.158;2022-08-01T10:42:14;4.80;;;1.50;;
55800;SDS011;41730;51.960;20.158;2022-08-01T10:44:46;1.90;;;1.40;;
55800;SDS011;41730;51.960;20.158;2022-08-01T10:47:20;2.50;;;1.30;;
55800;SDS011;41730;51.960;20.158;2022-08-01T10:50:17;3.20;;;1.30;;
55800;SDS011;41730;51.960;20.158;2022-08-01T10:53:08;2.50;;;1.60;;
55800;SDS011;41730;51.960;20.158;2022-08-01T10:55:47;2.90;;;1.40;;
55800;SDS011;41730;51.960;20.158;2022-08-01T10:58:21;3.00;;;2.00;;
55800;SDS011;41730;51.960;20.158;2022-08-01T11:04:08;2.40;;;1.60;;
55800;SDS011;41730;51.960;20.158;2022-08-01T11:06:45;3.10;;;1.90;;
55800;SDS011;41730;51.960;20.158;2022-08-01T11:09:22;2.70;;;1.50;;
55800;SDS011;41730;51.960;20.158;2022-08-01T11:12:08;4.00;;;1.90;;
55800;SDS011;41730;51.960;20.158;2022-08-01T11:17:58;2.60;;;1.40;;
55800;SDS011;41730;51.960;20.158;2022-08-01T11:20:29;3.80;;;1.70;;
55800;SDS011;41730;51.960;20.158;2022-08-01T11:26:11;1.90;;;1.30;;
55800;SDS011;41730;51.960;20.158;2022-08-01T11:28:44;4.60;;;1.80;;
55800;SDS011;41730;51.960;20.158;2022-08-01T11:31:48;3.50;;;1.70;;
55800;SDS011;41730;51.960;20.158;2022-08-01T11:34:19;2.60;;;1.70;;
55800;SDS011;41730;51.960;20.158;2022-08-01T11:37:23;4.10;;;1.70;;
55800;SDS011;41730;51.960;20.158;2022-08-01T11:40:14;2.70;;;1.30;;
55800;SDS011;41730;51.960;20.158;2022-08-01T11:42:45;2.10;;;1.40;;
55800;SDS011;41730;51.960;20.158;2022-08-01T11:45:15;2.70;;;1.60;;
55800;SDS011;41730;51.960;20.158;2022-08-01T11:47:45;4.10;;;1.50;;
55800;SDS011;41730;51.960;20.158;2022-08-01T11:50:32;2.80;;;1.60;;
55800;SDS011;41730;51.960;20.158;2022-08-01T11:53:03;2.30;;;1.50;;
55800;SDS011;41730;51.960;20.158;2022-08-01T11:55:34;4.20;;;1.40;;
55800;SDS011;41730;51.960;20.158;2022-08-01T11:58:04;3.90;;;1.70;;
55800;SDS011;41730;51.960;20.158;2022-08-01T12:00:56;2.20;;;1.50;;
55800;SDS011;41730;51.960;20.158;2022-08-01T12:03:26;1.90;;;1.30;;
55800;SDS011;41730;51.960;20.158;2022-08-01T12:08:29;3.60;;;1.40;;
55800;SDS011;41730;51.960;20.158;2022-08-01T12:11:02;3.00;;;1.40;;
55800;SDS011;41730;51.960;20.158;2022-08-01T12:13:39;2.80;;;1.50;;
55800;SDS011;41730;51.960;20.158;2022-08-01T12:16:12;4.10;;;1.50;;
55800;SDS011;41730;51.960;20.158;2022-08-01T12:18:42;2.30;;;1.40;;
55800;SDS011;41730;51.960;20.158;2022-08-01T12:21:12;2.90;;;1.40;;
55800;SDS011;41730;51.960;20.158;2022-08-01T12:23:42;2.40;;;1.40;;
55800;SDS011;41730;51.960;20.158;2022-08-01T12:26:12;2.30;;;1.40;;
55800;SDS011;41730;51.960;20.158;2022-08-01T12:28:58;3.30;;;1.60;;
55800;SDS011;41730;51.960;20.158;2022-08-01T12:31:33;2.90;;;1.30;;
55800;SDS011;41730;51.960;20.158;2022-08-01T12:36:55;2.30;;;1.50;;
55800;SDS011;41730;51.960;20.158;2022-08-01T12:39:35;2.80;;;1.60;;
55800;SDS011;41730;51.960;20.158;2022-08-01T12:42:07;2.30;;;1.40;;
55800;SDS011;41730;51.960;20.158;2022-08-01T12:44:37;3.60;;;1.60;;
55800;SDS011;41730;51.960;20.158;2022-08-01T12:47:10;2.70;;;1.30;;
55800;SDS011;41730;51.960;20.158;2022-08-01T12:49:41;2.80;;;1.60;;
55800;SDS011;41730;51.960;20.158;2022-08-01T12:52:12;3.00;;;1.50;;
55800;SDS011;41730;51.960;20.158;2022-08-01T12:55:04;4.50;;;2.50;;
55800;SDS011;41730;51.960;20.158;2022-08-01T12:57:39;2.10;;;1.60;;
55800;SDS011;41730;51.960;20.158;2022-08-01T13:00:13;2.90;;;1.60;;
55800;SDS011;41730;51.960;20.158;2022-08-01T13:02:48;2.90;;;1.40;;
55800;SDS011;41730;51.960;20.158;2022-08-01T13:05:31;2.60;;;1.50;;
55800;SDS011;41730;51.960;20.158;2022-08-01T13:08:11;2.80;;;1.40;;
55800;SDS011;41730;51.960;20.158;2022-08-01T13:10:41;2.50;;;1.80;;
55800;SDS011;41730;51.960;20.158;2022-08-01T13:13:11;3.70;;;1.80;;
55800;SDS011;41730;51.960;20.158;2022-08-01T13:16:03;2.70;;;2.00;;
55800;SDS011;41730;51.960;20.158;2022-08-01T13:18:42;2.30;;;1.40;;
55800;SDS011;41730;51.960;20.158;2022-08-01T13:21:17;2.90;;;1.70;;
55800;SDS011;41730;51.960;20.158;2022-08-01T13:24:01;3.10;;;1.50;;
55800;SDS011;41730;51.960;20.158;2022-08-01T13:26:43;4.30;;;1.50;;
55800;SDS011;41730;51.960;20.158;2022-08-01T13:29:15;2.80;;;1.70;;
55800;SDS011;41730;51.960;20.158;2022-08-01T13:31:46;2.30;;;1.60;;
55800;SDS011;41730;51.960;20.158;2022-08-01T13:34:15;3.60;;;1.60;;
55800;SDS011;41730;51.960;20.158;2022-08-01T13:36:45;5.00;;;1.80;;
55800;SDS011;41730;51.960;20.158;2022-08-01T13:39:16;4.10;;;1.70;;
55800;SDS011;41730;51.960;20.158;2022-08-01T13:42:03;3.50;;;1.80;;
55800;SDS011;41730;51.960;20.158;2022-08-01T13:44:34;3.10;;;1.60;;
55800;SDS011;41730;51.960;20.158;2022-08-01T13:47:04;2.80;;;1.80;;
55800;SDS011;41730;51.960;20.158;2022-08-01T13:49:42;2.80;;;1.50;;
55800;SDS011;41730;51.960;20.158;2022-08-01T13:52:11;2.40;;;1.50;;
55800;SDS011;41730;51.960;20.158;2022-08-01T13:54:41;5.90;;;1.50;;
55800;SDS011;41730;51.960;20.158;2022-08-01T13:57:10;2.60;;;1.70;;
55800;SDS011;41730;51.960;20.158;2022-08-01T13:59:41;3.60;;;1.40;;
55800;SDS011;41730;51.960;20.158;2022-08-01T14:02:10;2.80;;;1.80;;
55800;SDS011;41730;51.960;20.158;2022-08-01T14:04:40;2.30;;;1.70;;
55800;SDS011;41730;51.960;20.158;2022-08-01T14:07:09;3.10;;;1.90;;
55800;SDS011;41730;51.960;20.158;2022-08-01T14:09:41;2.60;;;1.90;;
55800;SDS011;41730;51.960;20.158;2022-08-01T14:12:31;3.40;;;1.70;;
55800;SDS011;41730;51.960;20.158;2022-08-01T14:15:00;2.90;;;1.60;;
55800;SDS011;41730;51.960;20.158;2022-08-01T14:17:30;3.70;;;2.00;;
55800;SDS011;41730;51.960;20.158;2022-08-01T14:20:04;5.20;;;2.60;;
55800;SDS011;41730;51.960;20.158;2022-08-01T14:22:35;3.70;;;2.70;;
55800;SDS011;41730;51.960;20.158;2022-08-01T14:25:08;4.10;;;2.10;;
55800;SDS011;41730;51.960;20.158;2022-08-01T14:27:50;3.00;;;1.90;;
55800;SDS011;41730;51.960;20.158;2022-08-01T14:30:19;2.80;;;1.70;;
55800;SDS011;41730;51.960;20.158;2022-08-01T14:32:49;3.20;;;1.60;;
55800;SDS011;41730;51.960;20.158;2022-08-01T14:35:19;5.30;;;2.00;;
55800;SDS011;41730;51.960;20.158;2022-08-01T14:37:48;3.70;;;1.70;;
55800;SDS011;41730;51.960;20.158;2022-08-01T14:40:23;3.30;;;1.90;;
55800;SDS011;41730;51.960;20.158;2022-08-01T14:42:53;4.10;;;1.90;;
55800;SDS011;41730;51.960;20.158;2022-08-01T14:45:22;6.30;;;2.00;;
55800;SDS011;41730;51.960;20.158;2022-08-01T14:47:52;2.30;;;1.80;;
55800;SDS011;41730;51.960;20.158;2022-08-01T14:50:23;3.20;;;1.90;;
55800;SDS011;41730;51.960;20.158;2022-08-01T14:52:53;3.30;;;1.80;;
55800;SDS011;41730;51.960;20.158;2022-08-01T14:55:23;2.50;;;1.90;;
55800;SDS011;41730;51.960;20.158;2022-08-01T14:57:54;4.00;;;2.30;;
55800;SDS011;41730;51.960;20.158;2022-08-01T15:00:23;3.30;;;1.90;;
55800;SDS011;41730;51.960;20.158;2022-08-01T15:02:53;4.00;;;1.50;;
55800;SDS011;41730;51.960;20.158;2022-08-01T15:05:22;2.30;;;1.50;;
55800;SDS011;41730;51.960;20.158;2022-08-01T15:07:52;4.70;;;1.80;;
55800;SDS011;41730;51.960;20.158;2022-08-01T15:10:22;4.80;;;1.90;;
55800;SDS011;41730;51.960;20.158;2022-08-01T15:12:52;4.00;;;1.90;;
55800;SDS011;41730;51.960;20.158;2022-08-01T15:15:22;4.60;;;2.40;;
55800;SDS011;41730;51.960;20.158;2022-08-01T15:17:52;3.70;;;1.80;;
55800;SDS011;41730;51.960;20.158;2022-08-01T15:20:21;3.40;;;2.10;;
55800;SDS011;41730;51.960;20.158;2022-08-01T15:22:51;2.50;;;1.80;;
55800;SDS011;41730;51.960;20.158;2022-08-01T15:25:21;2.90;;;2.10;;
55800;SDS011;41730;51.960;20.158;2022-08-01T15:27:50;3.70;;;2.00;;
55800;SDS011;41730;51.960;20.158;2022-08-01T15:30:20;4.70;;;1.90;;